Urbano Santos, Brazil
Current Conditions -  °F | °C
As of 1:00 PM on Friday 24 Oct 2014 (Local Time) from SBSL Reporting Station
Broken Clouds Broken Clouds  
Wind Chill: 88°   Ceiling: 2000
Heat Index: 93°   Visibility: 6mi
Dew Point: 70°   Wind: 13mph
Humidity: 55%   Direction: 60°ENE
Pressure: 29.83"   Gusts: NA
Location:  3.21°S, 43.4°W
Report Text: SBSL 241600Z 06011KT 9999 BKN020 FEW023TCU 31/21 Q1010
Loading
Personal Weather Stations






























Interactive Weather Map
Tropical Storm Tracking
New forecast layout! Learn more

10-Day Weather Forecast

Advertisements
Track Severe Weather on mobile